createdAt,value
2019-03-03T00:02:19.403Z,85.09
2019-03-03T00:04:46.874Z,85.19
2019-03-03T00:09:43.745Z,84.95
2019-03-03T00:12:11.178Z,84.17
2019-03-03T00:14:38.631Z,84.26
2019-03-03T00:17:06.112Z,84.67
2019-03-03T00:19:33.540Z,84.78
2019-03-03T00:22:01.032Z,84.73
2019-03-03T00:24:28.482Z,84.47
2019-03-03T00:26:55.925Z,84.50
2019-03-03T00:29:23.380Z,84.19
2019-03-03T00:31:50.827Z,83.96
2019-03-03T00:34:18.281Z,83.70
2019-03-03T00:36:51.413Z,83.84
2019-03-03T00:39:21.344Z,83.86
2019-03-03T00:41:52.750Z,83.54
2019-03-03T00:44:22.622Z,83.28
2019-03-03T00:47:05.862Z,83.16
2019-03-03T00:49:47.799Z,83.07
2019-03-03T00:52:15.300Z,83.06
2019-03-03T00:54:43.053Z,83.01
2019-03-03T00:57:10.489Z,82.44
2019-03-03T00:59:54.735Z,82.28
2019-03-03T01:02:37.086Z,82.18
2019-03-03T01:05:11.031Z,82.06
2019-03-03T01:07:39.967Z,81.53
2019-03-03T01:10:09.667Z,81.86
2019-03-03T01:12:39.731Z,81.26
2019-03-03T01:15:09.593Z,81.33
2019-03-03T01:17:38.852Z,80.86
2019-03-03T01:20:08.743Z,81.28
2019-03-03T01:22:56.875Z,80.62
2019-03-03T01:25:24.308Z,80.70
2019-03-03T01:27:51.780Z,80.60
2019-03-03T01:30:19.220Z,80.69
2019-03-03T01:32:46.641Z,80.65
2019-03-03T01:35:15.660Z,80.31
2019-03-03T01:37:43.169Z,80.37
2019-03-03T01:40:10.603Z,79.98
2019-03-03T01:42:38.036Z,79.87
2019-03-03T01:45:06.281Z,80.47
2019-03-03T01:47:33.751Z,80.07
2019-03-03T01:50:01.195Z,80.36
2019-03-03T01:52:28.653Z,80.61
2019-03-03T01:54:56.118Z,80.65
2019-03-03T01:57:23.566Z,80.34
2019-03-03T01:59:51.037Z,80.59
2019-03-03T02:02:18.460Z,80.38
2019-03-03T02:04:45.894Z,80.44
2019-03-03T02:07:13.370Z,80.48
2019-03-03T02:09:40.817Z,80.65
2019-03-03T02:12:08.275Z,80.35
2019-03-03T02:14:35.706Z,80.17
2019-03-03T02:17:03.174Z,80.25
2019-03-03T02:19:30.621Z,80.00
2019-03-03T02:21:58.055Z,80.27
2019-03-03T02:24:25.516Z,80.33
2019-03-03T02:26:53.027Z,80.40
2019-03-03T02:29:20.471Z,80.73
2019-03-03T02:31:47.941Z,81.00
2019-03-03T02:34:15.403Z,81.34
2019-03-03T02:36:43.044Z,81.33
2019-03-03T02:39:11.242Z,81.06
2019-03-03T02:41:38.687Z,81.46
2019-03-03T02:44:06.770Z,81.06
2019-03-03T02:46:34.358Z,81.29
2019-03-03T02:49:01.825Z,81.07
2019-03-03T02:51:29.270Z,81.29
2019-03-03T02:53:56.751Z,81.64
2019-03-03T02:56:24.189Z,81.56
2019-03-03T02:58:51.632Z,81.27
2019-03-03T03:01:19.117Z,81.44
2019-03-03T03:03:46.561Z,81.84
2019-03-03T03:06:14.472Z,82.11
2019-03-03T03:08:50.341Z,81.85
2019-03-03T03:11:18.500Z,81.72
2019-03-03T03:14:06.706Z,81.78
2019-03-03T03:16:49.065Z,82.27
2019-03-03T03:19:32.191Z,81.69
2019-03-03T03:22:19.340Z,81.65
2019-03-03T03:24:48.152Z,81.46
2019-03-03T03:27:19.115Z,81.64
2019-03-03T03:29:53.361Z,81.43
2019-03-03T03:32:36.280Z,81.75
2019-03-03T03:35:04.589Z,81.51
2019-03-03T03:37:32.388Z,81.50
2019-03-03T03:40:16.550Z,81.58
2019-03-03T03:42:44.836Z,81.64
2019-03-03T03:45:13.060Z,81.12
2019-03-03T03:47:55.401Z,81.45
2019-03-03T03:50:24.633Z,81.30
2019-03-03T03:53:07.509Z,81.68
2019-03-03T03:55:38.515Z,81.85
2019-03-03T03:58:06.028Z,81.64
2019-03-03T04:00:39.044Z,81.97
2019-03-03T04:03:11.940Z,81.89
2019-03-03T04:05:55.051Z,81.59
2019-03-03T04:08:28.156Z,81.91
2019-03-03T04:11:11.271Z,82.20
2019-03-03T04:13:42.092Z,82.26
2019-03-03T04:16:10.015Z,82.15
2019-03-03T04:18:56.123Z,81.82
2019-03-03T04:21:29.039Z,82.31
2019-03-03T04:23:58.016Z,83.01
2019-03-03T04:26:27.895Z,82.83
2019-03-03T04:28:57.847Z,83.31
2019-03-03T04:31:27.690Z,83.74
2019-03-03T04:34:01.009Z,84.25
2019-03-03T04:36:46.150Z,83.78
2019-03-03T04:39:16.658Z,83.40
2019-03-03T04:41:47.554Z,83.97
2019-03-03T04:44:15.945Z,84.49
2019-03-03T04:46:59.022Z,84.36
2019-03-03T04:49:32.161Z,84.21
2019-03-03T04:52:05.118Z,84.46
2019-03-03T04:54:35.015Z,84.83
2019-03-03T04:57:08.099Z,84.98
2019-03-03T04:59:51.341Z,85.07
2019-03-03T05:02:29.560Z,85.37
2019-03-03T05:05:01.563Z,85.61
2019-03-03T05:07:43.921Z,86.01
2019-03-03T05:10:16.778Z,85.88
2019-03-03T05:12:49.194Z,85.65
2019-03-03T05:15:16.984Z,85.71
2019-03-03T05:17:59.296Z,85.98
2019-03-03T05:20:26.725Z,86.07
2019-03-03T05:22:54.158Z,85.71
2019-03-03T05:25:23.000Z,85.80
2019-03-03T05:27:49.066Z,85.52
2019-03-03T05:30:16.498Z,84.80
2019-03-03T05:32:43.976Z,84.92
2019-03-03T05:35:11.424Z,84.74
2019-03-03T05:37:38.830Z,85.43
2019-03-03T05:40:06.293Z,85.60
2019-03-03T05:42:33.729Z,85.27
2019-03-03T05:45:01.189Z,85.17
2019-03-03T05:47:28.630Z,85.55
2019-03-03T05:49:56.039Z,85.57
2019-03-03T05:52:23.491Z,85.95
2019-03-03T05:54:50.941Z,87.01
2019-03-03T05:57:18.401Z,86.79
2019-03-03T05:59:45.825Z,86.37
2019-03-03T06:02:13.269Z,86.63
2019-03-03T06:04:40.730Z,86.63
2019-03-03T06:07:08.194Z,86.66
2019-03-03T06:09:35.609Z,86.39
2019-03-03T06:12:03.021Z,86.03
2019-03-03T06:14:30.465Z,85.48
2019-03-03T06:16:57.895Z,85.47
2019-03-03T06:19:25.354Z,85.41
2019-03-03T06:21:52.783Z,85.45
2019-03-03T06:24:20.285Z,84.87
2019-03-03T06:26:47.705Z,84.82
2019-03-03T06:29:15.128Z,85.07
2019-03-03T06:31:42.563Z,84.29
2019-03-03T06:34:10.043Z,84.41
2019-03-03T06:36:37.451Z,84.96
2019-03-03T06:39:04.893Z,85.08
2019-03-03T06:41:32.335Z,85.54
2019-03-03T06:43:59.849Z,85.30
2019-03-03T06:46:27.307Z,85.46
2019-03-03T06:48:54.762Z,86.16
2019-03-03T06:51:22.231Z,86.64
2019-03-03T06:53:49.702Z,87.12
2019-03-03T06:56:17.171Z,87.64
2019-03-03T06:58:44.612Z,88.70
2019-03-03T07:01:12.045Z,89.03
2019-03-03T07:03:39.506Z,89.13
2019-03-03T07:06:06.937Z,89.18
2019-03-03T07:08:34.397Z,89.33
2019-03-03T07:11:01.866Z,89.16
2019-03-03T07:13:29.333Z,90.20
2019-03-03T07:15:56.769Z,90.61
2019-03-03T07:18:24.226Z,91.24
2019-03-03T07:20:51.655Z,91.31
2019-03-03T07:23:19.098Z,92.28
2019-03-03T07:25:46.540Z,92.80
2019-03-03T07:28:13.964Z,93.05
2019-03-03T07:30:41.473Z,92.97
2019-03-03T07:33:11.394Z,92.67
2019-03-03T07:35:38.803Z,92.82
2019-03-03T07:38:06.246Z,92.38
2019-03-03T07:40:33.711Z,92.50
2019-03-03T07:43:01.158Z,92.48
2019-03-03T07:45:28.639Z,92.09
2019-03-03T07:47:56.077Z,91.79
2019-03-03T07:50:23.539Z,91.27
2019-03-03T07:52:50.988Z,90.87
2019-03-03T07:55:18.614Z,91.30
2019-03-03T07:57:46.894Z,91.61
2019-03-03T08:00:13.581Z,91.46
2019-03-03T08:02:41.000Z,92.15
2019-03-03T08:05:08.423Z,92.29
2019-03-03T08:07:35.868Z,92.20
2019-03-03T08:10:03.344Z,92.33
2019-03-03T08:12:30.795Z,92.92
2019-03-03T08:14:58.286Z,92.96
2019-03-03T08:17:25.723Z,92.80
2019-03-03T08:19:53.160Z,93.27
2019-03-03T08:22:20.726Z,93.31
2019-03-03T08:24:52.184Z,93.36
2019-03-03T08:27:19.975Z,93.67
2019-03-03T08:29:48.325Z,93.31
2019-03-03T08:32:16.335Z,93.02
2019-03-03T08:34:43.776Z,93.71
2019-03-03T08:37:11.367Z,93.41
2019-03-03T08:39:38.798Z,93.45
2019-03-03T08:42:21.117Z,93.10
2019-03-03T08:44:48.568Z,93.49
2019-03-03T08:47:31.824Z,93.99
2019-03-03T08:49:59.260Z,94.50
2019-03-03T08:52:26.800Z,94.84
2019-03-03T08:54:54.658Z,94.84
2019-03-03T08:57:22.132Z,95.72
2019-03-03T08:59:53.478Z,95.74
2019-03-03T09:02:25.420Z,95.78
2019-03-03T09:04:56.281Z,95.92
2019-03-03T09:07:24.237Z,95.98
2019-03-03T09:10:07.233Z,95.60
2019-03-03T09:12:34.683Z,95.38
2019-03-03T09:15:07.622Z,95.55
2019-03-03T09:17:50.796Z,95.94
2019-03-03T09:20:36.119Z,95.91
2019-03-03T09:23:19.398Z,96.37
2019-03-03T09:25:47.484Z,96.48
2019-03-03T09:28:14.924Z,96.29
2019-03-03T09:30:58.105Z,96.44
2019-03-03T09:33:40.407Z,96.47
2019-03-03T09:36:26.611Z,96.34
2019-03-03T09:38:55.019Z,96.36
2019-03-03T09:41:24.432Z,96.53
2019-03-03T09:44:07.698Z,96.20
2019-03-03T09:46:36.972Z,96.31
2019-03-03T09:49:20.145Z,96.52
2019-03-03T09:52:00.872Z,97.03
2019-03-03T09:54:29.029Z,96.87
2019-03-03T09:57:16.273Z,96.64
2019-03-03T09:59:43.689Z,96.67
2019-03-03T10:02:31.808Z,96.23
2019-03-03T10:05:06.668Z,96.19
2019-03-03T10:07:39.754Z,96.34
2019-03-03T10:10:10.420Z,96.49
2019-03-03T10:12:51.594Z,96.48
2019-03-03T10:15:37.045Z,96.24
2019-03-03T10:18:04.486Z,96.14
2019-03-03T10:20:52.740Z,96.33
2019-03-03T10:23:25.744Z,95.89
2019-03-03T10:26:08.968Z,96.23
2019-03-03T10:28:42.142Z,96.18
2019-03-03T10:31:10.702Z,96.02
2019-03-03T10:33:38.140Z,95.93
2019-03-03T10:36:15.506Z,96.25
2019-03-03T10:38:59.691Z,96.45
2019-03-03T10:41:32.715Z,96.31
2019-03-03T10:44:00.603Z,96.02
2019-03-03T10:46:33.775Z,96.00
2019-03-03T10:49:03.738Z,95.97
2019-03-03T10:51:32.715Z,96.02
2019-03-03T10:54:01.551Z,96.03
2019-03-03T10:56:40.694Z,96.04
2019-03-03T10:59:23.050Z,96.07
2019-03-03T11:01:57.034Z,96.12
2019-03-03T11:04:28.875Z,96.18
2019-03-03T11:07:00.147Z,95.90
2019-03-03T11:09:43.382Z,96.18
2019-03-03T11:12:31.562Z,96.49
2019-03-03T11:14:59.797Z,96.34
2019-03-03T11:17:30.204Z,96.53
2019-03-03T11:20:09.378Z,97.09
2019-03-03T11:22:42.333Z,96.81
2019-03-03T11:25:09.822Z,96.87
2019-03-03T11:27:53.051Z,96.89
2019-03-03T11:30:39.104Z,96.30
2019-03-03T11:33:10.950Z,96.51
2019-03-03T11:35:40.771Z,96.48
2019-03-03T11:38:26.042Z,96.48
2019-03-03T11:40:56.021Z,96.71
2019-03-03T11:43:29.541Z,96.57
2019-03-03T11:46:04.142Z,96.53
2019-03-03T11:48:45.082Z,96.38
2019-03-03T11:51:18.191Z,96.40
2019-03-03T11:54:00.536Z,96.37
2019-03-03T11:56:28.871Z,96.04
2019-03-03T11:58:57.133Z,95.83
2019-03-03T12:01:40.341Z,95.71
2019-03-03T12:04:07.825Z,95.52
2019-03-03T12:06:38.342Z,95.87
2019-03-03T12:09:11.248Z,95.90
2019-03-03T12:11:56.404Z,95.79
2019-03-03T12:14:29.258Z,95.71
2019-03-03T12:16:56.799Z,95.98
2019-03-03T12:19:40.179Z,95.45
2019-03-03T12:22:11.426Z,95.48
2019-03-03T12:24:39.379Z,95.52
2019-03-03T12:27:07.619Z,95.51
2019-03-03T12:29:36.835Z,95.17
2019-03-03T12:32:09.126Z,95.46
2019-03-03T12:34:51.455Z,95.46
2019-03-03T12:37:20.725Z,95.52
2019-03-03T12:39:48.153Z,95.84
2019-03-03T12:42:25.681Z,95.79
2019-03-03T12:44:53.461Z,95.90
2019-03-03T12:47:21.280Z,95.79
2019-03-03T12:50:04.542Z,95.99
2019-03-03T12:52:32.353Z,95.83
2019-03-03T12:55:00.323Z,96.14
2019-03-03T12:57:30.645Z,96.21
2019-03-03T13:00:03.618Z,95.92
2019-03-03T13:02:32.036Z,96.09
2019-03-03T13:05:01.404Z,95.67
2019-03-03T13:07:40.786Z,95.23
2019-03-03T13:10:10.035Z,95.04
2019-03-03T13:12:52.403Z,95.26
2019-03-03T13:15:35.636Z,95.17
2019-03-03T13:18:22.245Z,95.35
2019-03-03T13:21:02.570Z,95.43
2019-03-03T13:26:44.307Z,95.21
2019-03-03T13:29:17.471Z,94.83
2019-03-03T13:31:50.909Z,95.13
2019-03-03T13:34:33.342Z,95.11
2019-03-03T13:37:00.902Z,94.77
2019-03-03T13:39:31.707Z,94.57
2019-03-03T13:42:15.829Z,94.42
2019-03-03T13:44:43.394Z,94.52
2019-03-03T13:47:11.042Z,94.50
2019-03-03T13:49:38.672Z,94.03
2019-03-03T13:52:07.578Z,94.10
2019-03-03T13:54:35.222Z,94.26
2019-03-03T13:57:02.720Z,94.53
2019-03-03T13:59:30.352Z,94.55
2019-03-03T14:01:57.902Z,94.32
2019-03-03T14:04:25.337Z,93.83
2019-03-03T14:06:52.937Z,94.05
2019-03-03T14:09:20.386Z,93.93
2019-03-03T14:11:47.847Z,93.85
2019-03-03T14:14:15.945Z,93.48
2019-03-03T14:16:43.381Z,93.21
2019-03-03T14:19:10.822Z,93.27
2019-03-03T14:21:38.258Z,93.03
2019-03-03T14:24:05.712Z,92.54
2019-03-03T14:26:33.407Z,92.31
2019-03-03T14:29:00.882Z,92.14
2019-03-03T14:31:28.339Z,92.05
2019-03-03T14:33:55.802Z,91.90
2019-03-03T14:36:23.349Z,92.09
2019-03-03T14:38:50.803Z,91.92
2019-03-03T14:41:18.266Z,92.33
2019-03-03T14:43:45.747Z,91.88
2019-03-03T14:46:13.211Z,91.80
2019-03-03T14:48:40.670Z,91.71
2019-03-03T14:51:08.125Z,91.42
2019-03-03T14:53:35.576Z,91.10
2019-03-03T14:56:03.045Z,91.33
2019-03-03T14:58:31.430Z,91.18
2019-03-03T15:00:58.979Z,90.91
2019-03-03T15:03:26.454Z,90.93
2019-03-03T15:05:53.991Z,90.52
2019-03-03T15:08:21.431Z,90.32
2019-03-03T15:10:48.863Z,90.25
2019-03-03T15:13:17.727Z,90.03
2019-03-03T15:15:45.232Z,89.67
2019-03-03T15:18:12.681Z,89.79
2019-03-03T15:20:40.109Z,89.49
2019-03-03T15:23:07.811Z,89.09
2019-03-03T15:25:35.304Z,89.00
2019-03-03T15:28:02.823Z,89.24
2019-03-03T15:30:30.295Z,89.14
2019-03-03T15:32:57.796Z,89.11
2019-03-03T15:35:25.731Z,89.01
2019-03-03T15:37:54.682Z,88.50
2019-03-03T15:40:23.933Z,88.23
2019-03-03T15:42:51.376Z,88.14
2019-03-03T15:45:20.628Z,88.30
2019-03-03T15:47:48.173Z,88.11
2019-03-03T15:50:15.620Z,87.79
2019-03-03T15:52:43.056Z,87.77
2019-03-03T15:55:11.083Z,87.42
2019-03-03T15:57:38.541Z,87.27
2019-03-03T16:00:21.934Z,86.93
2019-03-03T16:02:49.414Z,86.64
2019-03-03T16:05:17.589Z,85.97
2019-03-03T16:07:46.782Z,86.51
2019-03-03T16:10:14.206Z,86.18
2019-03-03T16:12:41.674Z,86.08
2019-03-03T16:15:09.908Z,85.95
2019-03-03T16:17:37.396Z,85.98
2019-03-03T16:20:05.810Z,85.39
2019-03-03T16:22:33.276Z,84.85
2019-03-03T16:25:00.711Z,84.81
2019-03-03T16:27:28.170Z,84.69
2019-03-03T16:29:55.652Z,84.85
2019-03-03T16:32:23.079Z,84.74
2019-03-03T16:34:50.516Z,84.89
2019-03-03T16:37:17.936Z,84.98
2019-03-03T16:39:45.383Z,84.82
2019-03-03T16:42:12.867Z,84.26
2019-03-03T16:44:40.334Z,84.26
2019-03-03T16:47:07.797Z,84.24
2019-03-03T16:49:35.232Z,83.56
2019-03-03T16:52:04.599Z,83.55
2019-03-03T16:54:32.180Z,83.19
2019-03-03T16:56:59.657Z,83.60
2019-03-03T16:59:27.117Z,83.22
2019-03-03T17:01:54.599Z,82.83
2019-03-03T17:04:22.066Z,82.69
2019-03-03T17:06:49.654Z,82.76
2019-03-03T17:09:17.086Z,82.52
2019-03-03T17:11:44.559Z,82.37
2019-03-03T17:14:12.015Z,82.58
2019-03-03T17:16:39.427Z,82.64
2019-03-03T17:19:06.925Z,82.31
2019-03-03T17:21:34.372Z,82.22
2019-03-03T17:24:01.854Z,82.14
2019-03-03T17:26:29.372Z,82.30
2019-03-03T17:28:56.879Z,82.48
2019-03-03T17:31:24.312Z,82.04
2019-03-03T17:33:51.781Z,82.45
2019-03-03T17:36:19.229Z,82.70
2019-03-03T17:38:46.681Z,82.71
2019-03-03T17:41:14.113Z,82.53
2019-03-03T17:43:41.554Z,82.47
2019-03-03T17:46:08.995Z,82.33
2019-03-03T17:48:36.448Z,82.43
2019-03-03T17:51:03.908Z,82.12
2019-03-03T17:53:31.395Z,82.21
2019-03-03T17:55:58.841Z,82.37
2019-03-03T17:58:26.330Z,81.96
2019-03-03T18:00:54.602Z,82.10
2019-03-03T18:03:22.021Z,82.19
2019-03-03T18:05:49.499Z,82.13
2019-03-03T18:08:16.944Z,82.03
2019-03-03T18:10:44.402Z,81.61
2019-03-03T18:13:11.861Z,82.00
2019-03-03T18:15:39.312Z,82.09
2019-03-03T18:18:06.774Z,81.87
2019-03-03T18:20:34.200Z,81.36
2019-03-03T18:23:01.644Z,81.38
2019-03-03T18:25:29.772Z,81.27
2019-03-03T18:27:57.907Z,81.52
2019-03-03T18:30:26.637Z,81.47
2019-03-03T18:32:54.103Z,81.35
2019-03-03T18:35:21.591Z,81.08
2019-03-03T18:37:49.014Z,81.70
2019-03-03T18:40:17.393Z,80.85
2019-03-03T18:42:44.872Z,80.61
2019-03-03T18:45:13.200Z,80.74
2019-03-03T18:47:40.656Z,80.79
2019-03-03T18:50:09.759Z,80.51
2019-03-03T18:52:37.254Z,80.59
2019-03-03T18:55:05.561Z,80.51
2019-03-03T18:57:33.034Z,80.99
2019-03-03T19:00:00.662Z,80.14
2019-03-03T19:02:28.595Z,80.18
2019-03-03T19:04:56.087Z,80.22
2019-03-03T19:07:23.698Z,80.15
2019-03-03T19:09:51.165Z,79.97
2019-03-03T19:12:18.652Z,79.99
2019-03-03T19:14:46.158Z,79.42
2019-03-03T19:17:13.637Z,79.45
2019-03-03T19:19:41.090Z,80.00
2019-03-03T19:22:08.624Z,79.59
2019-03-03T19:24:36.089Z,79.41
2019-03-03T19:27:03.578Z,79.71
2019-03-03T19:29:31.060Z,79.25
2019-03-03T19:31:59.208Z,78.63
2019-03-03T19:34:26.747Z,78.69
2019-03-03T19:36:54.395Z,78.69
2019-03-03T19:39:21.894Z,79.11
2019-03-03T19:41:49.436Z,79.08
2019-03-03T19:44:16.958Z,79.11
2019-03-03T19:46:46.655Z,79.34
2019-03-03T19:49:14.672Z,79.04
2019-03-03T19:51:42.228Z,78.96
2019-03-03T19:54:09.716Z,78.90
2019-03-03T19:56:37.151Z,79.24
2019-03-03T19:59:04.620Z,79.31
2019-03-03T20:01:32.077Z,80.39
2019-03-03T20:03:59.709Z,80.73
2019-03-03T20:06:27.151Z,80.06
2019-03-03T20:08:54.608Z,80.23
2019-03-03T20:11:22.134Z,80.90
2019-03-03T20:13:50.625Z,81.43
2019-03-03T20:16:18.052Z,82.08
2019-03-03T20:18:45.510Z,81.79
2019-03-03T20:21:12.960Z,82.53
2019-03-03T20:23:40.456Z,82.90
2019-03-03T20:26:08.956Z,82.83
2019-03-03T20:28:36.457Z,82.75
2019-03-03T20:31:04.021Z,82.59
2019-03-03T20:33:31.487Z,81.92
2019-03-03T20:35:58.971Z,81.66
2019-03-03T20:38:26.480Z,81.77
2019-03-03T20:40:53.936Z,81.30
2019-03-03T20:43:21.777Z,81.52
2019-03-03T20:45:49.246Z,82.13
2019-03-03T20:48:16.689Z,83.12
2019-03-03T20:50:44.196Z,84.14
2019-03-03T20:53:12.059Z,85.14
2019-03-03T20:55:39.491Z,85.69
2019-03-03T20:58:06.984Z,85.90
2019-03-03T21:00:34.487Z,85.81
2019-03-03T21:03:02.079Z,86.17
2019-03-03T21:05:29.535Z,86.09
2019-03-03T21:07:56.996Z,85.93
2019-03-03T21:10:24.462Z,85.76
2019-03-03T21:12:51.900Z,85.07
2019-03-03T21:15:19.332Z,84.70
2019-03-03T21:17:46.767Z,84.54
2019-03-03T21:20:17.854Z,83.92
2019-03-03T21:22:45.480Z,83.70
2019-03-03T21:25:12.941Z,83.15
2019-03-03T21:27:40.387Z,82.99
2019-03-03T21:30:24.983Z,82.78
2019-03-03T21:32:52.443Z,82.77
2019-03-03T21:35:19.935Z,82.65
2019-03-03T21:37:47.375Z,82.97
2019-03-03T21:40:15.423Z,82.95
2019-03-03T21:42:43.548Z,82.87
2019-03-03T21:45:14.574Z,82.63
2019-03-03T21:47:42.148Z,82.77
2019-03-03T21:50:09.629Z,82.77
2019-03-03T21:52:37.164Z,82.53
2019-03-03T21:55:04.810Z,82.68
2019-03-03T21:57:32.569Z,82.83
2019-03-03T22:00:00.238Z,82.55
2019-03-03T22:02:27.642Z,82.45
2019-03-03T22:04:55.128Z,82.45
2019-03-03T22:07:22.588Z,81.91
2019-03-03T22:09:50.028Z,81.92
2019-03-03T22:12:17.452Z,82.10
2019-03-03T22:14:45.154Z,82.24
2019-03-03T22:17:12.582Z,81.97
2019-03-03T22:19:40.023Z,81.97
2019-03-03T22:22:07.486Z,82.16
2019-03-03T22:24:34.936Z,81.85
2019-03-03T22:27:03.402Z,81.66
2019-03-03T22:29:30.932Z,81.95
2019-03-03T22:31:58.388Z,81.97
2019-03-03T22:34:25.954Z,81.78
2019-03-03T22:36:53.420Z,81.43
2019-03-03T22:39:20.870Z,81.32
2019-03-03T22:41:48.358Z,81.25
2019-03-03T22:44:15.910Z,81.02
2019-03-03T22:46:43.356Z,80.91
2019-03-03T22:49:10.795Z,81.20
2019-03-03T22:51:38.249Z,80.74
2019-03-03T22:54:05.838Z,80.58
2019-03-03T22:56:33.287Z,80.34
2019-03-03T22:59:00.796Z,80.33
2019-03-03T23:01:28.230Z,79.94
2019-03-03T23:04:17.329Z,79.99
2019-03-03T23:06:45.578Z,79.58
2019-03-03T23:09:41.525Z,79.39
2019-03-03T23:12:13.389Z,79.35
2019-03-03T23:14:54.286Z,79.67
2019-03-03T23:17:33.293Z,79.82
2019-03-03T23:20:12.571Z,79.82
2019-03-03T23:22:42.650Z,79.94
2019-03-03T23:25:20.962Z,80.07
2019-03-03T23:27:48.425Z,79.83
2019-03-03T23:30:15.965Z,79.36
2019-03-03T23:32:43.478Z,79.51
2019-03-03T23:35:10.923Z,79.43
2019-03-03T23:37:38.358Z,79.45
2019-03-03T23:40:06.792Z,79.43
2019-03-03T23:42:34.286Z,79.29
2019-03-03T23:45:01.743Z,79.35
2019-03-03T23:47:29.201Z,78.80
2019-03-03T23:49:56.633Z,79.07
2019-03-03T23:52:24.178Z,79.24
2019-03-03T23:54:51.652Z,78.62
2019-03-03T23:57:19.136Z,79.12
